createdAt,value
2019-04-23T00:02:19.759Z,7.20
2019-04-23T00:04:50.928Z,5.72
2019-04-23T00:07:35.702Z,7.35
2019-04-23T00:10:03.498Z,9.70
2019-04-23T00:12:37.760Z,7.65
2019-04-23T00:17:37.363Z,7.47
2019-04-23T00:20:07.835Z,6.92
2019-04-23T00:28:10.282Z,8.48
2019-04-23T00:30:43.189Z,8.13
2019-04-23T00:33:12.399Z,8.13
2019-04-23T00:35:41.721Z,7.28
2019-04-23T00:38:10.474Z,9.00
2019-04-23T00:43:18.986Z,8.83
2019-04-23T00:45:50.303Z,8.35
2019-04-23T00:48:31.238Z,8.20
2019-04-23T00:50:58.609Z,7.70
2019-04-23T00:53:25.240Z,9.10
2019-04-23T00:56:02.640Z,8.73
2019-04-23T00:58:36.588Z,9.33
2019-04-23T01:00:59.196Z,7.75
2019-04-23T01:03:25.420Z,7.22
2019-04-23T01:06:21.174Z,7.00
2019-04-23T01:08:36.886Z,6.53
2019-04-23T01:13:42.655Z,7.10
2019-04-23T01:19:24.579Z,7.83
2019-04-23T01:21:19.827Z,8.08
2019-04-23T01:24:00.320Z,7.15
2019-04-23T01:26:50.294Z,7.55
2019-04-23T01:29:34.082Z,5.72
2019-04-23T01:31:57.347Z,6.65
2019-04-23T01:34:31.303Z,5.83
2019-04-23T01:36:56.040Z,5.62
2019-04-23T01:39:32.908Z,5.72
2019-04-23T01:42:13.173Z,5.37
2019-04-23T01:44:42.491Z,4.87
2019-04-23T01:47:07.796Z,6.35
2019-04-23T01:49:50.343Z,6.37
2019-04-23T01:52:16.367Z,5.10
2019-04-23T01:54:48.364Z,5.42
2019-04-23T01:57:17.037Z,5.95
2019-04-23T01:59:49.040Z,6.30
2019-04-23T02:02:20.685Z,8.40
2019-04-23T02:04:52.642Z,7.35
2019-04-23T02:07:29.559Z,8.35
2019-04-23T02:10:12.767Z,5.92
2019-04-23T02:15:03.697Z,8.38
2019-04-23T02:17:31.188Z,5.50
2019-04-23T02:20:14.162Z,6.53
2019-04-23T02:22:47.919Z,5.17
2019-04-23T02:25:30.340Z,5.30
2019-04-23T02:27:56.224Z,4.50
2019-04-23T02:30:40.104Z,5.22
2019-04-23T02:35:42.785Z,5.03
2019-04-23T02:40:46.694Z,5.70
2019-04-23T02:43:13.332Z,5.60
2019-04-23T02:45:48.487Z,5.90
2019-04-23T02:58:28.282Z,4.93
2019-04-23T03:01:10.978Z,5.80
2019-04-23T03:03:35.137Z,3.77
2019-04-23T03:13:41.326Z,6.05
2019-04-23T03:16:48.182Z,4.15
2019-04-23T03:18:51.605Z,3.70
2019-04-23T03:21:41.075Z,3.90
2019-04-23T03:37:20.295Z,2.75
2019-04-23T03:39:40.271Z,2.92
2019-04-23T03:42:02.910Z,2.70
2019-04-23T03:44:39.707Z,5.10
2019-04-23T03:47:06.653Z,2.00
2019-04-23T03:49:43.794Z,1.80
2019-04-23T03:52:16.039Z,1.85
2019-04-23T03:59:49.813Z,1.90
2019-04-23T04:02:31.363Z,3.20
2019-04-23T04:04:45.301Z,3.10
2019-04-23T04:07:29.359Z,2.55
2019-04-23T04:09:47.937Z,1.85
2019-04-23T04:12:35.301Z,1.77
2019-04-23T04:15:01.199Z,2.05
2019-04-23T04:17:28.289Z,1.77
2019-04-23T04:19:56.402Z,1.40
2019-04-23T04:22:37.379Z,2.20
2019-04-23T04:25:02.875Z,1.37
2019-04-23T04:27:42.389Z,1.30
2019-04-23T04:32:36.697Z,2.67
2019-04-23T04:40:29.571Z,4.55
2019-04-23T04:42:48.974Z,2.20
2019-04-23T04:45:25.553Z,0.70
2019-04-23T04:47:45.448Z,2.05
2019-04-23T04:50:35.021Z,1.22
2019-04-23T04:55:21.055Z,1.90
2019-04-23T04:57:56.669Z,0.85
2019-04-23T05:00:32.908Z,0.70
2019-04-23T05:03:10.730Z,0.60
2019-04-23T05:10:46.838Z,0.88
2019-04-23T05:13:22.357Z,1.30
2019-04-23T05:15:37.205Z,0.65
2019-04-23T05:18:28.843Z,0.40
2019-04-23T05:23:21.076Z,2.65
2019-04-23T05:26:08.547Z,3.00
2019-04-23T05:28:24.580Z,2.05
2019-04-23T05:30:52.007Z,0.50
2019-04-23T05:33:21.906Z,0.78
2019-04-23T05:36:12.742Z,2.08
2019-04-23T05:38:37.426Z,1.42
2019-04-23T05:41:10.351Z,3.77
2019-04-23T05:43:38.108Z,1.07
2019-04-23T05:46:13.025Z,0.93
2019-04-23T05:48:40.363Z,0.47
2019-04-23T05:51:31.143Z,2.65
2019-04-23T05:56:13.189Z,0.50
2019-04-23T06:01:51.142Z,0.37
2019-04-23T06:04:03.667Z,0.45
2019-04-23T06:06:37.945Z,0.88
2019-04-23T06:09:03.892Z,0.20
2019-04-23T06:11:45.231Z,0.40
2019-04-23T06:14:19.000Z,0.37
2019-04-23T06:21:56.128Z,0.72
2019-04-23T06:24:16.293Z,0.42
2019-04-23T06:29:22.512Z,0.40
2019-04-23T06:31:50.931Z,0.30
2019-04-23T06:34:23.383Z,0.90
2019-04-23T06:36:51.140Z,0.53
2019-04-23T06:39:26.025Z,1.77
2019-04-23T06:41:55.193Z,1.75
2019-04-23T06:44:30.838Z,0.95
2019-04-23T06:47:03.113Z,1.55
2019-04-23T06:49:37.647Z,1.57
2019-04-23T06:54:45.924Z,2.05
2019-04-23T06:57:14.875Z,1.42
2019-04-23T06:59:42.531Z,3.62
2019-04-23T07:02:18.723Z,2.15
2019-04-23T07:04:55.441Z,1.70
2019-04-23T07:07:41.036Z,2.40
2019-04-23T07:09:44.068Z,2.50
2019-04-23T07:12:21.855Z,2.15
2019-04-23T07:14:55.432Z,1.98
2019-04-23T07:17:34.541Z,1.80
2019-04-23T07:19:58.137Z,1.67
2019-04-23T07:22:29.091Z,1.80
2019-04-23T07:25:00.444Z,1.12
2019-04-23T07:27:33.366Z,2.47
2019-04-23T07:30:08.713Z,2.10
2019-04-23T07:32:35.778Z,2.92
2019-04-23T07:35:13.767Z,1.77
2019-04-23T07:37:48.880Z,0.68
2019-04-23T07:40:27.017Z,2.52
2019-04-23T07:43:08.746Z,0.62
2019-04-23T07:45:35.272Z,0.90
2019-04-23T07:48:16.429Z,0.50
2019-04-23T07:53:31.372Z,1.57
2019-04-23T08:01:05.478Z,1.65
2019-04-23T08:03:27.385Z,0.30
2019-04-23T08:06:01.016Z,0.70
2019-04-23T08:08:30.225Z,4.37
2019-04-23T08:11:25.856Z,1.98
2019-04-23T08:16:21.855Z,1.05
2019-04-23T08:18:49.521Z,1.17
2019-04-23T08:23:55.495Z,0.50
2019-04-23T08:26:50.945Z,4.47
2019-04-23T08:29:15.428Z,2.10
2019-04-23T08:31:52.723Z,0.80
2019-04-23T08:36:57.635Z,0.60
2019-04-23T08:39:26.536Z,0.70
2019-04-23T08:42:10.569Z,1.02
2019-04-23T08:52:21.543Z,1.32
2019-04-23T08:54:51.857Z,2.02
2019-04-23T08:57:21.534Z,1.20
2019-04-23T08:59:57.383Z,5.65
2019-04-23T09:05:00.018Z,13.88
2019-04-23T09:07:29.766Z,1.30
2019-04-23T09:10:07.794Z,14.93
2019-04-23T09:12:36.701Z,2.12
2019-04-23T09:15:13.008Z,6.70
2019-04-23T09:17:41.099Z,8.88
2019-04-23T09:20:18.642Z,10.60
2019-04-23T09:22:38.826Z,1.22
2019-04-23T09:25:20.288Z,2.25
2019-04-23T09:27:47.109Z,0.78
2019-04-23T09:30:18.799Z,1.72
2019-04-23T09:32:53.971Z,0.60
2019-04-23T09:35:30.914Z,0.70
2019-04-23T09:38:17.765Z,8.10
2019-04-23T09:41:22.184Z,1.52
2019-04-23T09:44:02.836Z,1.27
2019-04-23T09:46:37.765Z,2.83
2019-04-23T09:49:09.331Z,4.55
2019-04-23T09:51:51.172Z,10.85
2019-04-23T09:54:16.287Z,1.30
2019-04-23T09:56:50.988Z,1.25
2019-04-23T09:59:25.627Z,3.00
2019-04-23T10:01:42.486Z,1.25
2019-04-23T10:04:07.382Z,1.00
2019-04-23T10:06:32.094Z,1.92
2019-04-23T10:09:02.630Z,0.85
2019-04-23T10:11:34.600Z,2.00
2019-04-23T10:14:06.069Z,2.52
2019-04-23T10:16:37.004Z,3.35
2019-04-23T10:19:08.021Z,10.48
2019-04-23T10:21:39.451Z,9.35
2019-04-23T10:24:09.712Z,2.25
2019-04-23T10:26:39.980Z,1.05
2019-04-23T10:29:11.921Z,1.82
2019-04-23T10:31:42.536Z,1.35
2019-04-23T10:34:14.817Z,1.07
2019-04-23T10:36:44.987Z,1.35
2019-04-23T10:39:21.515Z,1.92
2019-04-23T10:41:48.816Z,3.22
2019-04-23T10:44:23.671Z,3.85
2019-04-23T10:47:37.095Z,2.27
2019-04-23T10:50:40.322Z,0.82
2019-04-23T10:53:21.438Z,2.58
2019-04-23T10:55:41.033Z,1.05
2019-04-23T10:58:08.520Z,3.75
2019-04-23T11:00:44.844Z,1.40
2019-04-23T11:03:32.003Z,1.07
2019-04-23T11:08:17.459Z,1.05
2019-04-23T11:10:50.273Z,1.25
2019-04-23T11:13:31.398Z,2.52
2019-04-23T11:16:36.823Z,1.00
2019-04-23T11:18:48.969Z,3.50
2019-04-23T11:23:46.671Z,2.15
2019-04-23T11:26:13.886Z,1.50
2019-04-23T11:28:41.655Z,1.67
2019-04-23T11:31:31.654Z,1.15
2019-04-23T11:41:32.295Z,0.70
2019-04-23T11:44:02.352Z,0.60
2019-04-23T11:46:46.234Z,1.75
2019-04-23T11:54:10.217Z,1.10
2019-04-23T11:57:13.080Z,0.42
2019-04-23T11:59:16.082Z,0.95
2019-04-23T12:09:48.756Z,1.25
2019-04-23T12:12:17.231Z,0.98
2019-04-23T12:15:03.627Z,0.95
2019-04-23T12:17:50.891Z,0.72
2019-04-23T12:20:26.718Z,0.80
2019-04-23T12:23:04.244Z,0.40
2019-04-23T12:25:32.462Z,0.85
2019-04-23T12:27:48.415Z,0.98
2019-04-23T12:33:06.983Z,0.55
2019-04-23T12:35:44.040Z,2.92
2019-04-23T12:38:13.970Z,0.75
2019-04-23T12:40:38.269Z,1.37
2019-04-23T12:43:14.565Z,1.67
2019-04-23T12:45:45.803Z,0.70
2019-04-23T12:51:00.480Z,1.27
2019-04-23T12:53:34.775Z,0.80
2019-04-23T12:55:51.245Z,1.20
2019-04-23T12:58:26.868Z,0.60
2019-04-23T13:00:52.780Z,0.53
2019-04-23T13:03:31.405Z,0.72
2019-04-23T13:05:54.056Z,0.47
2019-04-23T13:08:41.372Z,0.20
2019-04-23T13:11:07.983Z,0.90
2019-04-23T13:13:48.448Z,0.78
2019-04-23T13:16:12.352Z,2.72
2019-04-23T13:21:21.776Z,0.80
2019-04-23T13:23:39.188Z,0.33
2019-04-23T13:28:45.314Z,0.50
2019-04-23T13:31:15.147Z,2.42
2019-04-23T13:36:33.960Z,1.77
2019-04-23T13:38:56.662Z,1.90
2019-04-23T13:41:26.091Z,0.60
2019-04-23T13:43:52.666Z,0.68
2019-04-23T13:46:35.651Z,0.62
2019-04-23T13:49:03.139Z,0.45
2019-04-23T13:51:40.419Z,0.30
2019-04-23T13:54:08.205Z,0.50
2019-04-23T13:57:14.471Z,0.70
2019-04-23T13:59:26.355Z,0.60
2019-04-23T14:01:46.665Z,1.92
2019-04-23T14:04:40.311Z,0.53
2019-04-23T14:07:07.827Z,1.62
2019-04-23T14:09:45.484Z,0.75
2019-04-23T14:12:09.123Z,0.80
2019-04-23T14:14:57.977Z,0.42
2019-04-23T14:17:46.737Z,0.65
2019-04-23T14:19:53.731Z,0.60
2019-04-23T14:27:39.398Z,2.55
2019-04-23T14:30:13.282Z,0.60
2019-04-23T14:35:18.749Z,0.98
2019-04-23T14:38:09.819Z,1.00
2019-04-23T14:40:21.724Z,0.42
2019-04-23T14:43:08.843Z,0.78
2019-04-23T14:48:02.591Z,1.02
2019-04-23T14:50:31.974Z,0.70
2019-04-23T14:53:06.789Z,0.50
2019-04-23T15:00:43.148Z,1.00
2019-04-23T15:05:45.899Z,0.62
2019-04-23T15:08:15.576Z,0.28
2019-04-23T15:10:57.303Z,0.47
2019-04-23T15:13:22.862Z,0.60
2019-04-23T15:16:00.743Z,0.40
2019-04-23T15:18:35.241Z,0.35
2019-04-23T15:21:25.410Z,0.50
2019-04-23T15:27:02.505Z,0.37
2019-04-23T15:28:13.216Z,0.80
2019-04-23T15:31:20.155Z,1.65
2019-04-23T15:33:57.316Z,0.80
2019-04-23T15:38:53.634Z,0.55
2019-04-23T15:43:55.003Z,0.30
2019-04-23T15:46:25.364Z,0.42
2019-04-23T15:49:01.122Z,0.47
2019-04-23T15:51:35.425Z,0.55
2019-04-23T15:54:02.580Z,0.40
2019-04-23T15:59:13.557Z,1.07
2019-04-23T16:01:39.550Z,0.23
2019-04-23T16:06:10.849Z,2.05
2019-04-23T16:14:22.745Z,4.05
2019-04-23T16:17:02.123Z,0.30
2019-04-23T16:22:07.356Z,2.40
2019-04-23T16:24:25.191Z,0.78
2019-04-23T16:27:07.128Z,0.33
2019-04-23T16:29:54.208Z,0.50
2019-04-23T16:32:16.694Z,0.50
2019-04-23T16:34:39.396Z,0.88
2019-04-23T16:37:20.215Z,0.47
2019-04-23T16:39:56.082Z,1.35
2019-04-23T16:42:23.635Z,0.57
2019-04-23T16:47:24.549Z,1.22
2019-04-23T16:52:28.743Z,1.55
2019-04-23T16:55:09.289Z,1.70
2019-04-23T16:57:45.951Z,0.95
2019-04-23T17:02:48.261Z,0.90
2019-04-23T17:05:14.575Z,1.07
2019-04-23T17:07:54.025Z,0.60
2019-04-23T17:10:23.947Z,0.60
2019-04-23T17:12:51.893Z,1.10
2019-04-23T17:15:15.123Z,1.67
2019-04-23T17:17:47.868Z,0.80
2019-04-23T17:20:27.272Z,4.10
2019-04-23T17:23:00.521Z,2.65
2019-04-23T17:28:05.595Z,3.92
2019-04-23T17:30:28.316Z,2.15
2019-04-23T17:33:13.847Z,1.98
2019-04-23T17:35:40.972Z,2.42
2019-04-23T17:40:39.366Z,3.25
2019-04-23T17:46:01.143Z,11.30
2019-04-23T17:48:16.066Z,6.95
2019-04-23T17:51:00.364Z,5.20
2019-04-23T17:53:26.937Z,5.78
2019-04-23T17:56:08.683Z,9.25
2019-04-23T17:58:28.621Z,2.40
2019-04-23T18:01:17.015Z,8.95
2019-04-23T18:03:41.414Z,10.90
2019-04-23T18:06:23.331Z,10.82
2019-04-23T18:08:41.502Z,6.55
2019-04-23T18:13:49.809Z,6.42
2019-04-23T18:18:53.217Z,6.17
2019-04-23T18:21:36.050Z,8.00
2019-04-23T18:24:16.747Z,6.90
2019-04-23T18:27:00.598Z,8.18
2019-04-23T18:29:35.211Z,10.13
2019-04-23T18:32:11.554Z,10.80
2019-04-23T18:34:53.835Z,13.98
2019-04-23T18:37:10.596Z,10.48
2019-04-23T18:39:45.044Z,4.58
2019-04-23T18:42:18.914Z,2.95
2019-04-23T18:44:48.497Z,5.00
2019-04-23T18:47:24.906Z,5.22
2019-04-23T18:49:45.403Z,3.75
2019-04-23T18:52:25.986Z,10.60
2019-04-23T18:54:48.967Z,2.98
2019-04-23T18:57:24.994Z,1.98
2019-04-23T19:00:03.010Z,2.40
2019-04-23T19:02:42.699Z,8.30
2019-04-23T19:05:19.160Z,5.60
2019-04-23T19:15:38.063Z,4.80
2019-04-23T19:18:19.220Z,3.05
2019-04-23T19:25:38.758Z,7.33
2019-04-23T19:28:41.206Z,4.78
2019-04-23T19:31:02.084Z,8.23
2019-04-23T19:33:55.288Z,4.42
2019-04-23T19:36:11.341Z,6.22
2019-04-23T19:38:51.092Z,3.45
2019-04-23T19:41:20.944Z,5.28
2019-04-23T19:43:49.260Z,3.77
2019-04-23T19:56:45.077Z,1.75
2019-04-23T19:58:56.678Z,2.62
2019-04-23T20:07:06.144Z,4.65
2019-04-23T20:11:42.689Z,4.50
2019-04-23T20:14:02.443Z,5.60
2019-04-23T20:16:50.573Z,3.55
2019-04-23T20:19:19.262Z,2.85
2019-04-23T20:21:51.067Z,3.70
2019-04-23T20:24:32.219Z,3.37
2019-04-23T20:30:05.386Z,5.05
2019-04-23T20:31:58.238Z,6.00
2019-04-23T20:37:25.801Z,5.00
2019-04-23T20:40:11.494Z,5.87
2019-04-23T20:42:26.898Z,6.80
2019-04-23T20:47:24.477Z,5.72
2019-04-23T20:49:56.805Z,6.50
2019-04-23T20:52:22.995Z,11.53
2019-04-23T20:55:08.358Z,6.50
2019-04-23T21:00:34.107Z,4.05
2019-04-23T21:08:00.822Z,4.90
2019-04-23T21:10:34.539Z,5.15
2019-04-23T21:23:11.210Z,7.22
2019-04-23T21:25:44.576Z,8.68
2019-04-23T21:33:50.780Z,7.95
2019-04-23T21:36:26.464Z,4.95
2019-04-23T21:44:32.407Z,6.28
2019-04-23T21:46:56.634Z,9.80
2019-04-23T21:52:02.583Z,5.55
2019-04-23T21:54:32.552Z,7.90
2019-04-23T21:57:14.563Z,9.10
2019-04-23T21:59:39.099Z,5.72
2019-04-23T22:02:03.861Z,8.98
2019-04-23T22:04:39.584Z,7.33
2019-04-23T22:07:12.034Z,7.25
2019-04-23T22:09:48.421Z,11.00
2019-04-23T22:12:16.959Z,9.98
2019-04-23T22:14:46.844Z,9.23
2019-04-23T22:17:15.353Z,10.68
2019-04-23T22:20:00.545Z,7.03
2019-04-23T22:22:20.333Z,7.72
2019-04-23T22:24:53.376Z,9.40
2019-04-23T22:27:28.324Z,9.73
2019-04-23T22:29:49.215Z,8.00
2019-04-23T22:32:30.795Z,8.33
2019-04-23T22:35:01.151Z,11.20
2019-04-23T22:37:36.523Z,10.45
2019-04-23T22:45:12.365Z,10.23
2019-04-23T22:47:40.933Z,10.70
2019-04-23T22:50:14.457Z,8.15
2019-04-23T22:52:51.743Z,9.45
2019-04-23T22:58:03.139Z,10.70
2019-04-23T23:03:06.373Z,10.43
2019-04-23T23:05:56.344Z,17.70
2019-04-23T23:08:13.354Z,13.60
2019-04-23T23:10:51.919Z,11.28
2019-04-23T23:13:20.613Z,5.70
2019-04-23T23:15:59.539Z,7.70
2019-04-23T23:20:59.566Z,7.25
2019-04-23T23:23:30.083Z,9.20
2019-04-23T23:26:04.323Z,11.70
2019-04-23T23:33:43.007Z,9.88
2019-04-23T23:36:19.849Z,7.00
2019-04-23T23:41:27.026Z,10.23
2019-04-23T23:46:22.171Z,13.28
2019-04-23T23:48:51.324Z,8.90
2019-04-23T23:54:00.297Z,11.03
2019-04-23T23:59:04.310Z,7.92
